U42 weather

South Valley Regional Airport
Salt Lake City, Utah, United States

Public forecast

Using degrees Fahrenheit for public forecast. Weather courtesy of forecast.io.

METAR (pilot weather report)

Retrieved UTC (0 seconds ago):

TAF (pilot weather forecast)

Forecast is more than 12 hours old.

Closest forecast is Salt Lake City International Airport, 10.2 nm (18.8 km) N. Retrieved 2019/09/15 00:27 UTC (1 day ago):

TAF KSLC 152325Z 1600/1706 17015G22KT P6SM SKC FM160200 15011KT P6SM SCT200 FM160800 16018G28KT P6SM SCT120 FM161700 18022G35KT P6SM BKN100 FM170200 19015G25KT P6SM BKN100